sensor_id;sensor_type;location;lat;lon;timestamp;P1;durP1;ratioP1;P2;durP2;ratioP2
62994;SDS011;49086;52.300;4.850;2022-11-15T00:00:57;49.22;;;20.63;;
62994;SDS011;49086;52.300;4.850;2022-11-15T00:03:23;59.00;;;20.95;;
62994;SDS011;49086;52.300;4.850;2022-11-15T00:05:51;47.88;;;20.88;;
62994;SDS011;49086;52.300;4.850;2022-11-15T00:08:16;41.65;;;19.95;;
62994;SDS011;49086;52.300;4.850;2022-11-15T00:10:41;47.15;;;21.92;;
62994;SDS011;49086;52.300;4.850;2022-11-15T00:13:11;50.25;;;22.75;;
62994;SDS011;49086;52.300;4.850;2022-11-15T00:15:38;51.75;;;22.83;;
62994;SDS011;49086;52.300;4.850;2022-11-15T00:18:04;53.03;;;21.70;;
62994;SDS011;49086;52.300;4.850;2022-11-15T00:20:30;56.63;;;22.23;;
62994;SDS011;49086;52.300;4.850;2022-11-15T00:22:59;50.55;;;22.65;;
62994;SDS011;49086;52.300;4.850;2022-11-15T00:25:25;48.35;;;21.60;;
62994;SDS011;49086;52.300;4.850;2022-11-15T00:27:54;51.42;;;21.55;;
62994;SDS011;49086;52.300;4.850;2022-11-15T00:30:25;53.08;;;21.20;;
62994;SDS011;49086;52.300;4.850;2022-11-15T00:32:52;59.08;;;21.55;;
62994;SDS011;49086;52.300;4.850;2022-11-15T00:35:19;50.83;;;21.37;;
62994;SDS011;49086;52.300;4.850;2022-11-15T00:37:50;49.03;;;22.48;;
62994;SDS011;49086;52.300;4.850;2022-11-15T00:40:18;45.70;;;21.88;;
62994;SDS011;49086;52.300;4.850;2022-11-15T00:42:43;50.70;;;21.50;;
62994;SDS011;49086;52.300;4.850;2022-11-15T00:45:09;52.70;;;21.58;;
62994;SDS011;49086;52.300;4.850;2022-11-15T00:47:36;54.65;;;20.23;;
62994;SDS011;49086;52.300;4.850;2022-11-15T00:50:01;62.55;;;21.52;;
62994;SDS011;49086;52.300;4.850;2022-11-15T00:52:27;54.28;;;22.38;;
62994;SDS011;49086;52.300;4.850;2022-11-15T00:54:54;54.47;;;21.98;;
62994;SDS011;49086;52.300;4.850;2022-11-15T00:57:30;56.17;;;21.10;;
62994;SDS011;49086;52.300;4.850;2022-11-15T00:59:57;55.00;;;21.02;;
62994;SDS011;49086;52.300;4.850;2022-11-15T01:02:22;55.22;;;21.15;;
62994;SDS011;49086;52.300;4.850;2022-11-15T01:04:47;53.28;;;20.27;;
62994;SDS011;49086;52.300;4.850;2022-11-15T01:07:15;52.25;;;22.30;;
62994;SDS011;49086;52.300;4.850;2022-11-15T01:09:42;46.47;;;20.77;;
62994;SDS011;49086;52.300;4.850;2022-11-15T01:12:07;51.38;;;19.58;;
62994;SDS011;49086;52.300;4.850;2022-11-15T01:14:33;53.97;;;20.90;;
62994;SDS011;49086;52.300;4.850;2022-11-15T01:16:59;50.17;;;20.58;;
62994;SDS011;49086;52.300;4.850;2022-11-15T01:19:27;51.67;;;20.40;;
62994;SDS011;49086;52.300;4.850;2022-11-15T01:21:53;57.70;;;21.90;;
62994;SDS011;49086;52.300;4.850;2022-11-15T01:24:19;60.85;;;21.65;;
62994;SDS011;49086;52.300;4.850;2022-11-15T01:26:44;52.10;;;19.93;;
62994;SDS011;49086;52.300;4.850;2022-11-15T01:29:09;55.40;;;20.92;;
62994;SDS011;49086;52.300;4.850;2022-11-15T01:31:43;59.07;;;20.83;;
62994;SDS011;49086;52.300;4.850;2022-11-15T01:34:09;54.92;;;21.80;;
62994;SDS011;49086;52.300;4.850;2022-11-15T01:36:35;54.88;;;20.95;;
62994;SDS011;49086;52.300;4.850;2022-11-15T01:39:23;57.10;;;21.67;;
62994;SDS011;49086;52.300;4.850;2022-11-15T01:41:55;49.25;;;19.67;;
62994;SDS011;49086;52.300;4.850;2022-11-15T01:44:47;60.17;;;22.90;;
62994;SDS011;49086;52.300;4.850;2022-11-15T01:47:14;66.22;;;22.90;;
62994;SDS011;49086;52.300;4.850;2022-11-15T01:49:43;61.25;;;22.52;;
62994;SDS011;49086;52.300;4.850;2022-11-15T01:52:15;53.13;;;21.10;;
62994;SDS011;49086;52.300;4.850;2022-11-15T01:54:43;56.05;;;21.00;;
62994;SDS011;49086;52.300;4.850;2022-11-15T01:57:13;59.05;;;21.88;;
62994;SDS011;49086;52.300;4.850;2022-11-15T01:59:41;61.30;;;21.80;;
62994;SDS011;49086;52.300;4.850;2022-11-15T02:02:10;65.35;;;23.05;;
62994;SDS011;49086;52.300;4.850;2022-11-15T02:04:43;63.38;;;22.10;;
62994;SDS011;49086;52.300;4.850;2022-11-15T02:07:10;58.30;;;21.67;;
62994;SDS011;49086;52.300;4.850;2022-11-15T02:09:37;64.05;;;23.13;;
62994;SDS011;49086;52.300;4.850;2022-11-15T02:12:02;64.03;;;22.52;;
62994;SDS011;49086;52.300;4.850;2022-11-15T02:14:30;67.13;;;23.27;;
62994;SDS011;49086;52.300;4.850;2022-11-15T02:17:03;72.05;;;24.90;;
62994;SDS011;49086;52.300;4.850;2022-11-15T02:22:05;72.30;;;23.08;;
62994;SDS011;49086;52.300;4.850;2022-11-15T02:27:31;66.77;;;24.53;;
62994;SDS011;49086;52.300;4.850;2022-11-15T02:33:13;62.17;;;23.13;;
62994;SDS011;49086;52.300;4.850;2022-11-15T02:38:34;72.65;;;23.58;;
62994;SDS011;49086;52.300;4.850;2022-11-15T02:41:20;67.65;;;23.77;;
62994;SDS011;49086;52.300;4.850;2022-11-15T02:46:33;70.25;;;24.08;;
62994;SDS011;49086;52.300;4.850;2022-11-15T02:49:21;63.75;;;23.98;;
62994;SDS011;49086;52.300;4.850;2022-11-15T02:52:07;84.00;;;25.50;;
62994;SDS011;49086;52.300;4.850;2022-11-15T02:54:34;74.45;;;24.80;;
62994;SDS011;49086;52.300;4.850;2022-11-15T02:57:04;63.25;;;23.65;;
62994;SDS011;49086;52.300;4.850;2022-11-15T02:59:48;77.18;;;25.77;;
62994;SDS011;49086;52.300;4.850;2022-11-15T03:02:37;77.07;;;25.52;;
62994;SDS011;49086;52.300;4.850;2022-11-15T03:05:13;76.88;;;25.60;;
62994;SDS011;49086;52.300;4.850;2022-11-15T03:08:22;69.90;;;25.20;;
62994;SDS011;49086;52.300;4.850;2022-11-15T03:10:43;78.97;;;26.98;;
62994;SDS011;49086;52.300;4.850;2022-11-15T03:13:24;66.13;;;24.30;;
62994;SDS011;49086;52.300;4.850;2022-11-15T03:15:58;67.63;;;23.85;;
62994;SDS011;49086;52.300;4.850;2022-11-15T03:18:27;63.35;;;23.75;;
62994;SDS011;49086;52.300;4.850;2022-11-15T03:20:59;72.75;;;27.02;;
62994;SDS011;49086;52.300;4.850;2022-11-15T03:23:26;65.93;;;25.25;;
62994;SDS011;49086;52.300;4.850;2022-11-15T03:25:53;65.68;;;25.40;;
62994;SDS011;49086;52.300;4.850;2022-11-15T03:28:22;68.78;;;26.45;;
62994;SDS011;49086;52.300;4.850;2022-11-15T03:30:49;72.53;;;25.63;;
62994;SDS011;49086;52.300;4.850;2022-11-15T03:33:15;65.82;;;25.50;;
62994;SDS011;49086;52.300;4.850;2022-11-15T03:35:45;69.50;;;25.95;;
62994;SDS011;49086;52.300;4.850;2022-11-15T03:38:28;64.40;;;23.75;;
62994;SDS011;49086;52.300;4.850;2022-11-15T03:41:05;71.93;;;26.05;;
62994;SDS011;49086;52.300;4.850;2022-11-15T03:46:39;67.93;;;24.17;;
62994;SDS011;49086;52.300;4.850;2022-11-15T03:49:25;67.88;;;25.13;;
62994;SDS011;49086;52.300;4.850;2022-11-15T03:51:52;58.17;;;24.55;;
62994;SDS011;49086;52.300;4.850;2022-11-15T03:54:19;69.72;;;26.13;;
62994;SDS011;49086;52.300;4.850;2022-11-15T03:56:50;69.03;;;25.88;;
62994;SDS011;49086;52.300;4.850;2022-11-15T03:59:16;66.95;;;26.33;;
62994;SDS011;49086;52.300;4.850;2022-11-15T04:01:41;68.82;;;26.13;;
62994;SDS011;49086;52.300;4.850;2022-11-15T04:04:07;63.83;;;25.80;;
62994;SDS011;49086;52.300;4.850;2022-11-15T04:06:35;73.47;;;26.23;;
62994;SDS011;49086;52.300;4.850;2022-11-15T04:09:03;69.90;;;25.05;;
62994;SDS011;49086;52.300;4.850;2022-11-15T04:11:29;71.43;;;25.95;;
62994;SDS011;49086;52.300;4.850;2022-11-15T04:13:57;63.65;;;25.25;;
62994;SDS011;49086;52.300;4.850;2022-11-15T04:16:22;68.80;;;25.45;;
62994;SDS011;49086;52.300;4.850;2022-11-15T04:18:49;57.03;;;25.30;;
62994;SDS011;49086;52.300;4.850;2022-11-15T04:21:34;58.05;;;24.45;;
62994;SDS011;49086;52.300;4.850;2022-11-15T04:24:20;58.03;;;25.50;;
62994;SDS011;49086;52.300;4.850;2022-11-15T04:26:52;57.38;;;25.15;;
62994;SDS011;49086;52.300;4.850;2022-11-15T04:29:21;65.50;;;27.17;;
62994;SDS011;49086;52.300;4.850;2022-11-15T04:32:04;60.78;;;24.67;;
62994;SDS011;49086;52.300;4.850;2022-11-15T04:34:34;66.45;;;25.83;;
62994;SDS011;49086;52.300;4.850;2022-11-15T04:37:03;56.85;;;26.00;;
62994;SDS011;49086;52.300;4.850;2022-11-15T04:39:49;56.55;;;23.55;;
62994;SDS011;49086;52.300;4.850;2022-11-15T04:42:14;55.28;;;25.17;;
62994;SDS011;49086;52.300;4.850;2022-11-15T04:44:41;48.67;;;22.97;;
62994;SDS011;49086;52.300;4.850;2022-11-15T04:47:07;48.67;;;23.42;;
62994;SDS011;49086;52.300;4.850;2022-11-15T04:49:32;54.08;;;23.70;;
62994;SDS011;49086;52.300;4.850;2022-11-15T04:51:58;50.88;;;22.13;;
62994;SDS011;49086;52.300;4.850;2022-11-15T04:54:24;43.90;;;22.40;;
62994;SDS011;49086;52.300;4.850;2022-11-15T04:57:00;49.67;;;21.60;;
62994;SDS011;49086;52.300;4.850;2022-11-15T04:59:27;41.88;;;20.75;;
62994;SDS011;49086;52.300;4.850;2022-11-15T05:01:52;49.80;;;23.00;;
62994;SDS011;49086;52.300;4.850;2022-11-15T05:04:29;52.78;;;23.35;;
62994;SDS011;49086;52.300;4.850;2022-11-15T05:06:56;45.05;;;22.10;;
62994;SDS011;49086;52.300;4.850;2022-11-15T05:09:27;43.28;;;22.17;;
62994;SDS011;49086;52.300;4.850;2022-11-15T05:11:56;42.80;;;20.60;;
62994;SDS011;49086;52.300;4.850;2022-11-15T05:14:22;47.47;;;20.63;;
62994;SDS011;49086;52.300;4.850;2022-11-15T05:16:52;45.93;;;21.67;;
62994;SDS011;49086;52.300;4.850;2022-11-15T05:19:21;44.15;;;20.88;;
62994;SDS011;49086;52.300;4.850;2022-11-15T05:21:47;47.42;;;22.35;;
62994;SDS011;49086;52.300;4.850;2022-11-15T05:24:16;41.97;;;21.00;;
62994;SDS011;49086;52.300;4.850;2022-11-15T05:26:42;52.10;;;21.23;;
62994;SDS011;49086;52.300;4.850;2022-11-15T05:29:13;44.78;;;20.98;;
62994;SDS011;49086;52.300;4.850;2022-11-15T05:31:39;43.83;;;22.23;;
62994;SDS011;49086;52.300;4.850;2022-11-15T05:34:05;44.22;;;21.17;;
62994;SDS011;49086;52.300;4.850;2022-11-15T05:36:32;38.58;;;20.55;;
62994;SDS011;49086;52.300;4.850;2022-11-15T05:39:07;44.20;;;21.55;;
62994;SDS011;49086;52.300;4.850;2022-11-15T05:41:37;40.13;;;20.48;;
62994;SDS011;49086;52.300;4.850;2022-11-15T05:44:07;45.97;;;20.83;;
62994;SDS011;49086;52.300;4.850;2022-11-15T05:46:34;37.88;;;20.63;;
62994;SDS011;49086;52.300;4.850;2022-11-15T05:49:03;37.17;;;18.85;;
62994;SDS011;49086;52.300;4.850;2022-11-15T05:51:30;38.22;;;19.95;;
62994;SDS011;49086;52.300;4.850;2022-11-15T05:53:58;35.00;;;18.85;;
62994;SDS011;49086;52.300;4.850;2022-11-15T05:56:25;33.40;;;19.27;;
62994;SDS011;49086;52.300;4.850;2022-11-15T05:58:55;36.95;;;19.65;;
62994;SDS011;49086;52.300;4.850;2022-11-15T06:01:22;41.90;;;19.85;;
62994;SDS011;49086;52.300;4.850;2022-11-15T06:03:51;37.88;;;18.60;;
62994;SDS011;49086;52.300;4.850;2022-11-15T06:06:16;33.83;;;17.50;;
62994;SDS011;49086;52.300;4.850;2022-11-15T06:08:41;40.90;;;19.17;;
62994;SDS011;49086;52.300;4.850;2022-11-15T06:11:13;33.60;;;18.25;;
62994;SDS011;49086;52.300;4.850;2022-11-15T06:13:39;38.00;;;19.20;;
62994;SDS011;49086;52.300;4.850;2022-11-15T06:16:06;33.90;;;15.77;;
62994;SDS011;49086;52.300;4.850;2022-11-15T06:18:33;36.72;;;18.55;;
62994;SDS011;49086;52.300;4.850;2022-11-15T06:21:00;35.33;;;17.73;;
62994;SDS011;49086;52.300;4.850;2022-11-15T06:23:27;37.97;;;18.48;;
62994;SDS011;49086;52.300;4.850;2022-11-15T06:25:52;33.70;;;17.88;;
62994;SDS011;49086;52.300;4.850;2022-11-15T06:28:20;36.78;;;19.30;;
62994;SDS011;49086;52.300;4.850;2022-11-15T06:30:45;33.20;;;18.50;;
62994;SDS011;49086;52.300;4.850;2022-11-15T06:33:10;33.25;;;17.60;;
62994;SDS011;49086;52.300;4.850;2022-11-15T06:35:37;33.55;;;18.15;;
62994;SDS011;49086;52.300;4.850;2022-11-15T06:38:03;42.08;;;18.02;;
62994;SDS011;49086;52.300;4.850;2022-11-15T06:40:32;33.42;;;17.95;;
62994;SDS011;49086;52.300;4.850;2022-11-15T06:43:00;33.15;;;17.98;;
62994;SDS011;49086;52.300;4.850;2022-11-15T06:45:29;33.83;;;18.00;;
62994;SDS011;49086;52.300;4.850;2022-11-15T06:47:55;30.42;;;17.80;;
62994;SDS011;49086;52.300;4.850;2022-11-15T06:50:20;33.88;;;17.67;;
62994;SDS011;49086;52.300;4.850;2022-11-15T06:52:46;36.63;;;17.77;;
62994;SDS011;49086;52.300;4.850;2022-11-15T06:55:15;32.50;;;17.15;;
62994;SDS011;49086;52.300;4.850;2022-11-15T06:57:48;29.95;;;17.45;;
62994;SDS011;49086;52.300;4.850;2022-11-15T07:00:13;28.37;;;16.10;;
62994;SDS011;49086;52.300;4.850;2022-11-15T07:02:39;35.35;;;17.42;;
62994;SDS011;49086;52.300;4.850;2022-11-15T07:05:05;30.50;;;16.73;;
62994;SDS011;49086;52.300;4.850;2022-11-15T07:07:30;34.83;;;17.20;;
62994;SDS011;49086;52.300;4.850;2022-11-15T07:09:55;31.33;;;16.73;;
62994;SDS011;49086;52.300;4.850;2022-11-15T07:12:23;26.35;;;15.55;;
62994;SDS011;49086;52.300;4.850;2022-11-15T07:14:48;31.83;;;16.65;;
62994;SDS011;49086;52.300;4.850;2022-11-15T07:17:15;30.58;;;16.17;;
62994;SDS011;49086;52.300;4.850;2022-11-15T07:19:52;27.17;;;15.75;;
62994;SDS011;49086;52.300;4.850;2022-11-15T07:22:18;32.00;;;16.10;;
62994;SDS011;49086;52.300;4.850;2022-11-15T07:24:48;25.02;;;14.02;;
62994;SDS011;49086;52.300;4.850;2022-11-15T07:27:13;26.20;;;14.85;;
62994;SDS011;49086;52.300;4.850;2022-11-15T07:29:42;31.92;;;14.93;;
62994;SDS011;49086;52.300;4.850;2022-11-15T07:32:19;29.38;;;14.13;;
62994;SDS011;49086;52.300;4.850;2022-11-15T07:34:48;33.67;;;14.45;;
62994;SDS011;49086;52.300;4.850;2022-11-15T07:37:14;28.60;;;15.30;;
62994;SDS011;49086;52.300;4.850;2022-11-15T07:39:39;27.38;;;14.88;;
62994;SDS011;49086;52.300;4.850;2022-11-15T07:42:07;28.40;;;13.93;;
62994;SDS011;49086;52.300;4.850;2022-11-15T07:44:51;31.63;;;15.68;;
62994;SDS011;49086;52.300;4.850;2022-11-15T07:47:18;25.52;;;13.27;;
62994;SDS011;49086;52.300;4.850;2022-11-15T07:49:45;27.02;;;13.13;;
62994;SDS011;49086;52.300;4.850;2022-11-15T07:52:11;27.50;;;13.68;;
62994;SDS011;49086;52.300;4.850;2022-11-15T07:54:36;29.52;;;14.50;;
62994;SDS011;49086;52.300;4.850;2022-11-15T07:57:02;25.58;;;13.35;;
62994;SDS011;49086;52.300;4.850;2022-11-15T07:59:28;26.20;;;13.43;;
62994;SDS011;49086;52.300;4.850;2022-11-15T08:01:57;28.23;;;12.52;;
62994;SDS011;49086;52.300;4.850;2022-11-15T08:04:22;26.35;;;13.68;;
62994;SDS011;49086;52.300;4.850;2022-11-15T08:06:47;21.52;;;11.75;;
62994;SDS011;49086;52.300;4.850;2022-11-15T08:09:14;24.90;;;13.02;;
62994;SDS011;49086;52.300;4.850;2022-11-15T08:11:39;21.37;;;11.17;;
62994;SDS011;49086;52.300;4.850;2022-11-15T08:14:06;23.42;;;12.23;;
62994;SDS011;49086;52.300;4.850;2022-11-15T08:16:32;29.65;;;12.95;;
62994;SDS011;49086;52.300;4.850;2022-11-15T08:18:58;26.20;;;13.32;;
62994;SDS011;49086;52.300;4.850;2022-11-15T08:21:23;27.47;;;13.10;;
62994;SDS011;49086;52.300;4.850;2022-11-15T08:23:54;24.33;;;13.63;;
62994;SDS011;49086;52.300;4.850;2022-11-15T08:26:28;24.48;;;13.43;;
62994;SDS011;49086;52.300;4.850;2022-11-15T08:28:55;24.30;;;13.55;;
62994;SDS011;49086;52.300;4.850;2022-11-15T08:31:22;26.30;;;14.05;;
62994;SDS011;49086;52.300;4.850;2022-11-15T08:33:47;26.10;;;13.43;;
62994;SDS011;49086;52.300;4.850;2022-11-15T08:36:16;23.60;;;13.20;;
62994;SDS011;49086;52.300;4.850;2022-11-15T08:38:42;27.33;;;13.75;;
62994;SDS011;49086;52.300;4.850;2022-11-15T08:41:11;29.88;;;14.00;;
62994;SDS011;49086;52.300;4.850;2022-11-15T08:43:42;24.05;;;12.40;;
62994;SDS011;49086;52.300;4.850;2022-11-15T08:46:09;26.77;;;13.57;;
62994;SDS011;49086;52.300;4.850;2022-11-15T08:48:36;29.80;;;13.70;;
62994;SDS011;49086;52.300;4.850;2022-11-15T08:51:01;24.33;;;13.43;;
62994;SDS011;49086;52.300;4.850;2022-11-15T08:53:27;27.38;;;13.38;;
62994;SDS011;49086;52.300;4.850;2022-11-15T08:55:52;25.13;;;13.97;;
62994;SDS011;49086;52.300;4.850;2022-11-15T08:58:20;25.58;;;14.00;;
62994;SDS011;49086;52.300;4.850;2022-11-15T09:00:45;25.92;;;12.98;;
62994;SDS011;49086;52.300;4.850;2022-11-15T09:03:10;24.38;;;12.02;;
62994;SDS011;49086;52.300;4.850;2022-11-15T09:05:37;26.02;;;12.25;;
62994;SDS011;49086;52.300;4.850;2022-11-15T09:08:14;18.95;;;10.93;;
62994;SDS011;49086;52.300;4.850;2022-11-15T09:10:42;22.15;;;12.20;;
62994;SDS011;49086;52.300;4.850;2022-11-15T09:13:07;21.77;;;11.90;;
62994;SDS011;49086;52.300;4.850;2022-11-15T09:15:32;18.43;;;10.63;;
62994;SDS011;49086;52.300;4.850;2022-11-15T09:18:03;19.25;;;10.55;;
62994;SDS011;49086;52.300;4.850;2022-11-15T09:20:35;21.05;;;10.73;;
62994;SDS011;49086;52.300;4.850;2022-11-15T09:23:00;17.10;;;9.63;;
62994;SDS011;49086;52.300;4.850;2022-11-15T09:25:27;19.38;;;10.75;;
62994;SDS011;49086;52.300;4.850;2022-11-15T09:27:53;18.02;;;9.05;;
62994;SDS011;49086;52.300;4.850;2022-11-15T09:30:18;18.40;;;9.57;;
62994;SDS011;49086;52.300;4.850;2022-11-15T09:32:44;16.45;;;9.02;;
62994;SDS011;49086;52.300;4.850;2022-11-15T09:35:09;16.95;;;7.93;;
62994;SDS011;49086;52.300;4.850;2022-11-15T09:37:34;12.70;;;7.97;;
62994;SDS011;49086;52.300;4.850;2022-11-15T09:40:13;12.93;;;7.75;;
62994;SDS011;49086;52.300;4.850;2022-11-15T09:48:12;12.27;;;7.10;;
62994;SDS011;49086;52.300;4.850;2022-11-15T09:50:52;11.60;;;7.03;;
62994;SDS011;49086;52.300;4.850;2022-11-15T09:56:27;11.05;;;7.07;;
62994;SDS011;49086;52.300;4.850;2022-11-15T09:58:58;13.90;;;7.10;;
62994;SDS011;49086;52.300;4.850;2022-11-15T10:04:13;10.30;;;6.68;;
62994;SDS011;49086;52.300;4.850;2022-11-15T10:06:42;11.88;;;6.28;;
62994;SDS011;49086;52.300;4.850;2022-11-15T10:09:15;8.52;;;5.65;;
62994;SDS011;49086;52.300;4.850;2022-11-15T10:11:42;9.63;;;5.90;;
62994;SDS011;49086;52.300;4.850;2022-11-15T10:14:15;12.80;;;5.53;;
62994;SDS011;49086;52.300;4.850;2022-11-15T10:19:26;12.00;;;5.32;;
62994;SDS011;49086;52.300;4.850;2022-11-15T10:24:39;6.78;;;4.78;;
62994;SDS011;49086;52.300;4.850;2022-11-15T10:27:13;9.93;;;5.53;;
62994;SDS011;49086;52.300;4.850;2022-11-15T10:29:47;8.82;;;4.97;;
62994;SDS011;49086;52.300;4.850;2022-11-15T10:32:18;9.18;;;5.38;;
62994;SDS011;49086;52.300;4.850;2022-11-15T10:34:45;9.73;;;4.95;;
62994;SDS011;49086;52.300;4.850;2022-11-15T10:37:10;7.30;;;4.32;;
62994;SDS011;49086;52.300;4.850;2022-11-15T10:39:37;10.00;;;5.35;;
62994;SDS011;49086;52.300;4.850;2022-11-15T10:42:16;9.90;;;4.75;;
62994;SDS011;49086;52.300;4.850;2022-11-15T10:44:43;12.68;;;5.45;;
62994;SDS011;49086;52.300;4.850;2022-11-15T10:47:22;8.43;;;4.80;;
62994;SDS011;49086;52.300;4.850;2022-11-15T10:49:59;10.73;;;4.55;;
62994;SDS011;49086;52.300;4.850;2022-11-15T10:52:24;6.90;;;4.60;;
62994;SDS011;49086;52.300;4.850;2022-11-15T10:54:53;9.52;;;4.95;;
62994;SDS011;49086;52.300;4.850;2022-11-15T10:57:23;7.55;;;3.97;;
62994;SDS011;49086;52.300;4.850;2022-11-15T10:59:51;12.63;;;4.53;;
62994;SDS011;49086;52.300;4.850;2022-11-15T11:02:38;9.30;;;4.65;;
62994;SDS011;49086;52.300;4.850;2022-11-15T11:05:04;8.75;;;4.47;;
62994;SDS011;49086;52.300;4.850;2022-11-15T11:07:32;12.20;;;4.68;;
62994;SDS011;49086;52.300;4.850;2022-11-15T11:12:38;7.30;;;4.63;;
62994;SDS011;49086;52.300;4.850;2022-11-15T11:15:09;8.63;;;3.70;;
62994;SDS011;49086;52.300;4.850;2022-11-15T11:17:57;11.05;;;4.15;;
62994;SDS011;49086;52.300;4.850;2022-11-15T11:20:31;10.00;;;3.85;;
62994;SDS011;49086;52.300;4.850;2022-11-15T11:23:31;8.23;;;3.42;;
62994;SDS011;49086;52.300;4.850;2022-11-15T11:28:48;9.05;;;3.90;;
62994;SDS011;49086;52.300;4.850;2022-11-15T11:31:34;8.65;;;3.60;;
62994;SDS011;49086;52.300;4.850;2022-11-15T11:34:12;6.63;;;3.17;;
62994;SDS011;49086;52.300;4.850;2022-11-15T11:36:49;9.70;;;3.28;;
62994;SDS011;49086;52.300;4.850;2022-11-15T11:39:21;9.30;;;3.40;;
62994;SDS011;49086;52.300;4.850;2022-11-15T11:47:37;6.35;;;3.00;;
62994;SDS011;49086;52.300;4.850;2022-11-15T11:50:19;7.35;;;3.15;;
62994;SDS011;49086;52.300;4.850;2022-11-15T11:55:45;6.75;;;2.50;;
62994;SDS011;49086;52.300;4.850;2022-11-15T11:58:28;7.57;;;2.25;;
62994;SDS011;49086;52.300;4.850;2022-11-15T12:03:38;5.60;;;2.45;;
62994;SDS011;49086;52.300;4.850;2022-11-15T12:09:01;6.00;;;2.42;;
62994;SDS011;49086;52.300;4.850;2022-11-15T12:11:30;9.15;;;2.78;;
62994;SDS011;49086;52.300;4.850;2022-11-15T12:14:00;8.88;;;2.22;;
62994;SDS011;49086;52.300;4.850;2022-11-15T12:16:30;6.43;;;2.55;;
62994;SDS011;49086;52.300;4.850;2022-11-15T12:18:56;8.68;;;2.28;;
62994;SDS011;49086;52.300;4.850;2022-11-15T12:21:41;6.70;;;2.28;;
62994;SDS011;49086;52.300;4.850;2022-11-15T12:24:20;5.63;;;2.00;;
62994;SDS011;49086;52.300;4.850;2022-11-15T12:26:52;6.32;;;1.95;;
62994;SDS011;49086;52.300;4.850;2022-11-15T12:29:36;4.22;;;1.98;;
62994;SDS011;49086;52.300;4.850;2022-11-15T12:32:06;4.70;;;1.90;;
62994;SDS011;49086;52.300;4.850;2022-11-15T12:34:48;5.82;;;1.90;;
62994;SDS011;49086;52.300;4.850;2022-11-15T12:47:23;4.43;;;1.70;;
62994;SDS011;49086;52.300;4.850;2022-11-15T12:49:52;7.68;;;2.13;;
62994;SDS011;49086;52.300;4.850;2022-11-15T12:52:18;6.85;;;1.77;;
62994;SDS011;49086;52.300;4.850;2022-11-15T12:54:54;6.40;;;2.10;;
62994;SDS011;49086;52.300;4.850;2022-11-15T12:57:27;4.70;;;1.75;;
62994;SDS011;49086;52.300;4.850;2022-11-15T12:59:54;6.13;;;1.77;;
62994;SDS011;49086;52.300;4.850;2022-11-15T13:02:26;6.22;;;1.50;;
62994;SDS011;49086;52.300;4.850;2022-11-15T13:10:31;4.70;;;1.30;;
62994;SDS011;49086;52.300;4.850;2022-11-15T13:12:57;3.55;;;1.20;;
62994;SDS011;49086;52.300;4.850;2022-11-15T13:15:30;6.25;;;1.60;;
62994;SDS011;49086;52.300;4.850;2022-11-15T13:18:23;3.15;;;1.35;;
62994;SDS011;49086;52.300;4.850;2022-11-15T13:20:46;4.72;;;1.20;;
62994;SDS011;49086;52.300;4.850;2022-11-15T13:23:14;3.97;;;1.20;;
62994;SDS011;49086;52.300;4.850;2022-11-15T13:30:41;7.05;;;1.38;;
62994;SDS011;49086;52.300;4.850;2022-11-15T13:33:14;4.03;;;1.17;;
62994;SDS011;49086;52.300;4.850;2022-11-15T13:35:55;3.22;;;1.20;;
62994;SDS011;49086;52.300;4.850;2022-11-15T13:40:49;7.80;;;1.40;;
62994;SDS011;49086;52.300;4.850;2022-11-15T13:43:34;4.25;;;1.15;;
62994;SDS011;49086;52.300;4.850;2022-11-15T13:46:13;7.30;;;1.45;;
62994;SDS011;49086;52.300;4.850;2022-11-15T13:48:47;4.43;;;1.38;;
62994;SDS011;49086;52.300;4.850;2022-11-15T13:51:18;3.90;;;1.55;;
62994;SDS011;49086;52.300;4.850;2022-11-15T13:53:55;5.70;;;1.30;;
62994;SDS011;49086;52.300;4.850;2022-11-15T13:56:21;3.47;;;1.00;;
62994;SDS011;49086;52.300;4.850;2022-11-15T13:58:48;7.55;;;1.42;;
62994;SDS011;49086;52.300;4.850;2022-11-15T14:01:24;4.90;;;1.40;;
62994;SDS011;49086;52.300;4.850;2022-11-15T14:03:56;5.22;;;1.45;;
62994;SDS011;49086;52.300;4.850;2022-11-15T14:06:24;8.27;;;1.55;;
62994;SDS011;49086;52.300;4.850;2022-11-15T14:09:00;3.95;;;1.30;;
62994;SDS011;49086;52.300;4.850;2022-11-15T14:11:27;6.28;;;1.33;;
62994;SDS011;49086;52.300;4.850;2022-11-15T14:16:41;2.78;;;1.20;;
62994;SDS011;49086;52.300;4.850;2022-11-15T14:19:12;4.07;;;1.50;;
62994;SDS011;49086;52.300;4.850;2022-11-15T14:24:37;3.30;;;1.20;;
62994;SDS011;49086;52.300;4.850;2022-11-15T14:29:55;4.72;;;1.35;;
62994;SDS011;49086;52.300;4.850;2022-11-15T14:32:29;5.25;;;1.13;;
62994;SDS011;49086;52.300;4.850;2022-11-15T14:34:58;2.40;;;1.23;;
62994;SDS011;49086;52.300;4.850;2022-11-15T14:37:28;9.13;;;2.00;;
62994;SDS011;49086;52.300;4.850;2022-11-15T14:40:00;4.95;;;1.33;;
62994;SDS011;49086;52.300;4.850;2022-11-15T14:42:25;5.03;;;1.30;;
62994;SDS011;49086;52.300;4.850;2022-11-15T14:44:51;3.97;;;1.42;;
62994;SDS011;49086;52.300;4.850;2022-11-15T14:47:18;7.00;;;1.55;;
62994;SDS011;49086;52.300;4.850;2022-11-15T14:49:44;3.65;;;1.40;;
62994;SDS011;49086;52.300;4.850;2022-11-15T14:52:23;5.43;;;1.55;;
62994;SDS011;49086;52.300;4.850;2022-11-15T14:54:50;6.97;;;1.63;;
62994;SDS011;49086;52.300;4.850;2022-11-15T14:57:18;3.85;;;1.50;;
62994;SDS011;49086;52.300;4.850;2022-11-15T14:59:43;4.63;;;1.80;;
62994;SDS011;49086;52.300;4.850;2022-11-15T15:02:43;4.95;;;1.58;;
62994;SDS011;49086;52.300;4.850;2022-11-15T15:05:00;6.28;;;1.77;;
62994;SDS011;49086;52.300;4.850;2022-11-15T15:07:28;6.95;;;1.63;;
62994;SDS011;49086;52.300;4.850;2022-11-15T15:09:57;7.00;;;1.75;;
62994;SDS011;49086;52.300;4.850;2022-11-15T15:12:23;4.40;;;1.63;;
62994;SDS011;49086;52.300;4.850;2022-11-15T15:14:50;4.53;;;1.50;;
62994;SDS011;49086;52.300;4.850;2022-11-15T15:17:17;6.10;;;1.77;;
62994;SDS011;49086;52.300;4.850;2022-11-15T15:19:52;4.70;;;1.92;;
62994;SDS011;49086;52.300;4.850;2022-11-15T15:22:18;5.27;;;1.77;;
62994;SDS011;49086;52.300;4.850;2022-11-15T15:24:44;3.67;;;1.60;;
62994;SDS011;49086;52.300;4.850;2022-11-15T15:27:11;3.80;;;1.80;;
62994;SDS011;49086;52.300;4.850;2022-11-15T15:29:36;5.22;;;1.60;;
62994;SDS011;49086;52.300;4.850;2022-11-15T15:32:02;8.93;;;1.60;;
62994;SDS011;49086;52.300;4.850;2022-11-15T15:34:27;4.80;;;1.80;;
62994;SDS011;49086;52.300;4.850;2022-11-15T15:39:50;7.97;;;1.58;;
62994;SDS011;49086;52.300;4.850;2022-11-15T15:42:16;7.10;;;2.17;;
62994;SDS011;49086;52.300;4.850;2022-11-15T15:44:42;7.10;;;1.50;;
62994;SDS011;49086;52.300;4.850;2022-11-15T15:47:09;8.68;;;1.80;;
62994;SDS011;49086;52.300;4.850;2022-11-15T15:49:35;3.45;;;1.60;;
62994;SDS011;49086;52.300;4.850;2022-11-15T15:52:01;8.68;;;2.15;;
62994;SDS011;49086;52.300;4.850;2022-11-15T15:54:28;7.50;;;1.85;;
62994;SDS011;49086;52.300;4.850;2022-11-15T15:56:54;4.50;;;1.50;;
62994;SDS011;49086;52.300;4.850;2022-11-15T15:59:19;3.63;;;1.67;;
62994;SDS011;49086;52.300;4.850;2022-11-15T16:01:46;3.05;;;1.55;;
62994;SDS011;49086;52.300;4.850;2022-11-15T16:04:11;5.68;;;1.80;;
62994;SDS011;49086;52.300;4.850;2022-11-15T16:06:39;5.47;;;1.98;;
62994;SDS011;49086;52.300;4.850;2022-11-15T16:09:08;4.00;;;1.98;;
62994;SDS011;49086;52.300;4.850;2022-11-15T16:11:38;4.55;;;1.95;;
62994;SDS011;49086;52.300;4.850;2022-11-15T16:14:14;3.70;;;1.70;;